sensor_id;sensor_type;location;lat;lon;timestamp;P1;durP1;ratioP1;P2;durP2;ratioP2
7231;SDS011;3657;49.630;11.018;2022-12-10T00:01:56;34.07;;;30.57;;
7231;SDS011;3657;49.630;11.018;2022-12-10T00:04:23;34.90;;;31.30;;
7231;SDS011;3657;49.630;11.018;2022-12-10T00:06:51;34.80;;;31.37;;
7231;SDS011;3657;49.630;11.018;2022-12-10T00:09:18;42.53;;;36.87;;
7231;SDS011;3657;49.630;11.018;2022-12-10T00:11:46;35.07;;;31.40;;
7231;SDS011;3657;49.630;11.018;2022-12-10T00:14:13;34.00;;;30.53;;
7231;SDS011;3657;49.630;11.018;2022-12-10T00:16:40;35.37;;;31.47;;
7231;SDS011;3657;49.630;11.018;2022-12-10T00:19:08;35.17;;;31.57;;
7231;SDS011;3657;49.630;11.018;2022-12-10T00:21:35;36.23;;;32.63;;
7231;SDS011;3657;49.630;11.018;2022-12-10T00:24:04;36.03;;;32.30;;
7231;SDS011;3657;49.630;11.018;2022-12-10T00:26:31;36.17;;;32.37;;
7231;SDS011;3657;49.630;11.018;2022-12-10T00:29:00;36.03;;;32.33;;
7231;SDS011;3657;49.630;11.018;2022-12-10T00:31:29;34.53;;;31.13;;
7231;SDS011;3657;49.630;11.018;2022-12-10T00:33:58;34.60;;;31.10;;
7231;SDS011;3657;49.630;11.018;2022-12-10T00:36:27;35.63;;;32.13;;
7231;SDS011;3657;49.630;11.018;2022-12-10T00:38:55;35.23;;;31.70;;
7231;SDS011;3657;49.630;11.018;2022-12-10T00:41:23;35.80;;;32.17;;
7231;SDS011;3657;49.630;11.018;2022-12-10T00:43:50;37.87;;;33.83;;
7231;SDS011;3657;49.630;11.018;2022-12-10T00:46:18;37.70;;;33.83;;
7231;SDS011;3657;49.630;11.018;2022-12-10T00:48:45;36.37;;;32.30;;
7231;SDS011;3657;49.630;11.018;2022-12-10T00:51:12;36.53;;;33.00;;
7231;SDS011;3657;49.630;11.018;2022-12-10T00:53:40;39.10;;;34.77;;
7231;SDS011;3657;49.630;11.018;2022-12-10T00:56:09;48.03;;;37.07;;
7231;SDS011;3657;49.630;11.018;2022-12-10T00:58:38;37.80;;;33.80;;
7231;SDS011;3657;49.630;11.018;2022-12-10T01:01:06;38.13;;;34.10;;
7231;SDS011;3657;49.630;11.018;2022-12-10T01:03:34;39.43;;;35.23;;
7231;SDS011;3657;49.630;11.018;2022-12-10T01:06:07;37.47;;;33.33;;
7231;SDS011;3657;49.630;11.018;2022-12-10T01:08:34;38.17;;;34.37;;
7231;SDS011;3657;49.630;11.018;2022-12-10T01:11:01;38.40;;;34.50;;
7231;SDS011;3657;49.630;11.018;2022-12-10T01:13:28;39.37;;;35.10;;
7231;SDS011;3657;49.630;11.018;2022-12-10T01:15:56;38.27;;;34.40;;
7231;SDS011;3657;49.630;11.018;2022-12-10T01:18:23;38.20;;;34.20;;
7231;SDS011;3657;49.630;11.018;2022-12-10T01:20:49;36.20;;;32.43;;
7231;SDS011;3657;49.630;11.018;2022-12-10T01:23:16;36.70;;;32.70;;
7231;SDS011;3657;49.630;11.018;2022-12-10T01:25:43;37.33;;;33.33;;
7231;SDS011;3657;49.630;11.018;2022-12-10T01:28:09;40.70;;;34.40;;
7231;SDS011;3657;49.630;11.018;2022-12-10T01:30:36;38.67;;;33.87;;
7231;SDS011;3657;49.630;11.018;2022-12-10T01:33:04;38.03;;;34.10;;
7231;SDS011;3657;49.630;11.018;2022-12-10T01:35:31;37.93;;;33.83;;
7231;SDS011;3657;49.630;11.018;2022-12-10T01:38:01;38.67;;;34.13;;
7231;SDS011;3657;49.630;11.018;2022-12-10T01:40:27;37.53;;;33.50;;
7231;SDS011;3657;49.630;11.018;2022-12-10T01:42:55;38.37;;;34.10;;
7231;SDS011;3657;49.630;11.018;2022-12-10T01:45:22;41.13;;;34.47;;
7231;SDS011;3657;49.630;11.018;2022-12-10T01:47:48;36.27;;;32.47;;
7231;SDS011;3657;49.630;11.018;2022-12-10T01:50:16;37.00;;;33.10;;
7231;SDS011;3657;49.630;11.018;2022-12-10T01:52:43;37.43;;;32.27;;
7231;SDS011;3657;49.630;11.018;2022-12-10T01:58:08;35.40;;;31.80;;
7231;SDS011;3657;49.630;11.018;2022-12-10T02:00:36;35.50;;;31.80;;
7231;SDS011;3657;49.630;11.018;2022-12-10T02:03:10;35.07;;;31.40;;
7231;SDS011;3657;49.630;11.018;2022-12-10T02:05:42;36.93;;;33.03;;
7231;SDS011;3657;49.630;11.018;2022-12-10T02:08:18;35.53;;;32.03;;
7231;SDS011;3657;49.630;11.018;2022-12-10T02:10:52;36.07;;;32.53;;
7231;SDS011;3657;49.630;11.018;2022-12-10T02:13:27;35.13;;;31.37;;
7231;SDS011;3657;49.630;11.018;2022-12-10T02:16:00;35.80;;;32.13;;
7231;SDS011;3657;49.630;11.018;2022-12-10T02:18:31;35.27;;;31.57;;
7231;SDS011;3657;49.630;11.018;2022-12-10T02:21:04;34.63;;;31.13;;
7231;SDS011;3657;49.630;11.018;2022-12-10T02:23:35;34.97;;;31.37;;
7231;SDS011;3657;49.630;11.018;2022-12-10T02:26:06;36.07;;;32.20;;
7231;SDS011;3657;49.630;11.018;2022-12-10T02:28:39;35.73;;;32.13;;
7231;SDS011;3657;49.630;11.018;2022-12-10T02:31:14;32.83;;;29.63;;
7231;SDS011;3657;49.630;11.018;2022-12-10T02:33:45;35.73;;;32.03;;
7231;SDS011;3657;49.630;11.018;2022-12-10T02:36:16;34.93;;;31.37;;
7231;SDS011;3657;49.630;11.018;2022-12-10T02:38:44;34.83;;;31.13;;
7231;SDS011;3657;49.630;11.018;2022-12-10T02:41:13;34.10;;;30.27;;
7231;SDS011;3657;49.630;11.018;2022-12-10T02:43:44;34.93;;;31.30;;
7231;SDS011;3657;49.630;11.018;2022-12-10T02:46:14;34.90;;;31.23;;
7231;SDS011;3657;49.630;11.018;2022-12-10T02:48:42;33.80;;;30.27;;
7231;SDS011;3657;49.630;11.018;2022-12-10T02:51:09;32.00;;;28.70;;
7231;SDS011;3657;49.630;11.018;2022-12-10T02:53:40;35.33;;;31.73;;
7231;SDS011;3657;49.630;11.018;2022-12-10T02:56:08;34.90;;;31.27;;
7231;SDS011;3657;49.630;11.018;2022-12-10T02:58:47;32.93;;;29.53;;
7231;SDS011;3657;49.630;11.018;2022-12-10T03:01:26;34.20;;;30.77;;
7231;SDS011;3657;49.630;11.018;2022-12-10T03:04:01;32.90;;;29.73;;
7231;SDS011;3657;49.630;11.018;2022-12-10T03:06:34;32.63;;;29.20;;
7231;SDS011;3657;49.630;11.018;2022-12-10T03:09:08;33.80;;;30.40;;
7231;SDS011;3657;49.630;11.018;2022-12-10T03:11:38;33.30;;;29.83;;
7231;SDS011;3657;49.630;11.018;2022-12-10T03:14:10;32.83;;;29.53;;
7231;SDS011;3657;49.630;11.018;2022-12-10T03:16:42;33.47;;;30.17;;
7231;SDS011;3657;49.630;11.018;2022-12-10T03:19:10;32.10;;;29.00;;
7231;SDS011;3657;49.630;11.018;2022-12-10T03:21:39;32.63;;;29.37;;
7231;SDS011;3657;49.630;11.018;2022-12-10T03:24:09;31.03;;;28.03;;
7231;SDS011;3657;49.630;11.018;2022-12-10T03:26:36;32.57;;;29.27;;
7231;SDS011;3657;49.630;11.018;2022-12-10T03:29:05;32.80;;;29.53;;
7231;SDS011;3657;49.630;11.018;2022-12-10T03:31:34;31.13;;;28.03;;
7231;SDS011;3657;49.630;11.018;2022-12-10T03:34:04;32.90;;;29.70;;
7231;SDS011;3657;49.630;11.018;2022-12-10T03:36:33;30.83;;;27.83;;
7231;SDS011;3657;49.630;11.018;2022-12-10T03:39:00;31.67;;;28.43;;
7231;SDS011;3657;49.630;11.018;2022-12-10T03:41:28;32.13;;;28.87;;
7231;SDS011;3657;49.630;11.018;2022-12-10T03:43:55;31.13;;;28.03;;
7231;SDS011;3657;49.630;11.018;2022-12-10T03:46:24;31.57;;;28.37;;
7231;SDS011;3657;49.630;11.018;2022-12-10T03:48:52;32.17;;;29.03;;
7231;SDS011;3657;49.630;11.018;2022-12-10T03:51:21;30.50;;;27.60;;
7231;SDS011;3657;49.630;11.018;2022-12-10T03:53:48;30.83;;;27.73;;
7231;SDS011;3657;49.630;11.018;2022-12-10T03:56:15;32.00;;;28.83;;
7231;SDS011;3657;49.630;11.018;2022-12-10T03:58:41;30.30;;;27.43;;
7231;SDS011;3657;49.630;11.018;2022-12-10T04:01:08;30.90;;;27.83;;
7231;SDS011;3657;49.630;11.018;2022-12-10T04:03:35;31.40;;;28.23;;
7231;SDS011;3657;49.630;11.018;2022-12-10T04:06:03;31.93;;;28.83;;
7231;SDS011;3657;49.630;11.018;2022-12-10T04:08:33;29.27;;;26.27;;
7231;SDS011;3657;49.630;11.018;2022-12-10T04:11:03;31.23;;;28.07;;
7231;SDS011;3657;49.630;11.018;2022-12-10T04:13:31;31.53;;;28.47;;
7231;SDS011;3657;49.630;11.018;2022-12-10T04:16:16;31.40;;;28.20;;
7231;SDS011;3657;49.630;11.018;2022-12-10T04:18:55;30.07;;;27.13;;
7231;SDS011;3657;49.630;11.018;2022-12-10T04:21:24;29.43;;;26.53;;
7231;SDS011;3657;49.630;11.018;2022-12-10T04:24:22;33.13;;;29.77;;
7231;SDS011;3657;49.630;11.018;2022-12-10T04:27:08;31.40;;;28.43;;
7231;SDS011;3657;49.630;11.018;2022-12-10T04:29:36;31.70;;;28.50;;
7231;SDS011;3657;49.630;11.018;2022-12-10T04:32:03;30.80;;;27.90;;
7231;SDS011;3657;49.630;11.018;2022-12-10T04:34:30;31.33;;;28.20;;
7231;SDS011;3657;49.630;11.018;2022-12-10T04:36:57;30.83;;;27.80;;
7231;SDS011;3657;49.630;11.018;2022-12-10T04:39:26;31.23;;;28.07;;
7231;SDS011;3657;49.630;11.018;2022-12-10T04:41:52;31.40;;;28.20;;
7231;SDS011;3657;49.630;11.018;2022-12-10T04:44:19;32.30;;;29.10;;
7231;SDS011;3657;49.630;11.018;2022-12-10T04:46:46;31.33;;;28.07;;
7231;SDS011;3657;49.630;11.018;2022-12-10T04:49:13;30.90;;;27.80;;
7231;SDS011;3657;49.630;11.018;2022-12-10T04:51:40;31.43;;;28.43;;
7231;SDS011;3657;49.630;11.018;2022-12-10T04:54:08;31.37;;;28.27;;
7231;SDS011;3657;49.630;11.018;2022-12-10T04:56:36;32.40;;;28.97;;
7231;SDS011;3657;49.630;11.018;2022-12-10T04:59:03;31.27;;;28.07;;
7231;SDS011;3657;49.630;11.018;2022-12-10T05:01:31;32.90;;;29.37;;
7231;SDS011;3657;49.630;11.018;2022-12-10T05:03:58;31.10;;;28.00;;
7231;SDS011;3657;49.630;11.018;2022-12-10T05:06:26;31.97;;;28.70;;
7231;SDS011;3657;49.630;11.018;2022-12-10T05:08:53;31.07;;;27.77;;
7231;SDS011;3657;49.630;11.018;2022-12-10T05:11:20;31.60;;;28.23;;
7231;SDS011;3657;49.630;11.018;2022-12-10T05:13:50;32.70;;;29.30;;
7231;SDS011;3657;49.630;11.018;2022-12-10T05:16:18;32.90;;;29.37;;
7231;SDS011;3657;49.630;11.018;2022-12-10T05:18:46;31.63;;;28.50;;
7231;SDS011;3657;49.630;11.018;2022-12-10T05:21:14;32.17;;;28.83;;
7231;SDS011;3657;49.630;11.018;2022-12-10T05:23:42;31.10;;;28.00;;
7231;SDS011;3657;49.630;11.018;2022-12-10T05:26:10;33.30;;;29.77;;
7231;SDS011;3657;49.630;11.018;2022-12-10T05:28:39;33.10;;;28.67;;
7231;SDS011;3657;49.630;11.018;2022-12-10T05:31:12;32.33;;;28.93;;
7231;SDS011;3657;49.630;11.018;2022-12-10T05:33:39;32.23;;;29.03;;
7231;SDS011;3657;49.630;11.018;2022-12-10T05:36:07;31.03;;;28.00;;
7231;SDS011;3657;49.630;11.018;2022-12-10T05:38:35;32.10;;;28.67;;
7231;SDS011;3657;49.630;11.018;2022-12-10T05:41:02;34.07;;;30.30;;
7231;SDS011;3657;49.630;11.018;2022-12-10T05:43:29;31.47;;;28.10;;
7231;SDS011;3657;49.630;11.018;2022-12-10T05:45:58;32.23;;;28.80;;
7231;SDS011;3657;49.630;11.018;2022-12-10T05:48:27;32.53;;;29.13;;
7231;SDS011;3657;49.630;11.018;2022-12-10T05:50:54;31.37;;;28.03;;
7231;SDS011;3657;49.630;11.018;2022-12-10T05:53:21;30.93;;;27.73;;
7231;SDS011;3657;49.630;11.018;2022-12-10T05:55:48;31.03;;;27.77;;
7231;SDS011;3657;49.630;11.018;2022-12-10T05:58:15;31.23;;;27.83;;
7231;SDS011;3657;49.630;11.018;2022-12-10T06:00:42;31.67;;;28.27;;
7231;SDS011;3657;49.630;11.018;2022-12-10T06:03:08;30.80;;;27.63;;
7231;SDS011;3657;49.630;11.018;2022-12-10T06:05:37;31.73;;;28.10;;
7231;SDS011;3657;49.630;11.018;2022-12-10T06:08:04;32.53;;;29.03;;
7231;SDS011;3657;49.630;11.018;2022-12-10T06:10:31;31.47;;;28.17;;
7231;SDS011;3657;49.630;11.018;2022-12-10T06:12:59;31.13;;;27.70;;
7231;SDS011;3657;49.630;11.018;2022-12-10T06:15:26;30.73;;;27.63;;
7231;SDS011;3657;49.630;11.018;2022-12-10T06:17:53;32.27;;;28.90;;
7231;SDS011;3657;49.630;11.018;2022-12-10T06:20:20;30.97;;;27.87;;
7231;SDS011;3657;49.630;11.018;2022-12-10T06:22:48;33.33;;;30.00;;
7231;SDS011;3657;49.630;11.018;2022-12-10T06:25:15;30.63;;;27.47;;
7231;SDS011;3657;49.630;11.018;2022-12-10T06:27:42;35.60;;;29.17;;
7231;SDS011;3657;49.630;11.018;2022-12-10T06:30:09;30.37;;;27.53;;
7231;SDS011;3657;49.630;11.018;2022-12-10T06:32:36;30.70;;;27.63;;
7231;SDS011;3657;49.630;11.018;2022-12-10T06:35:04;29.90;;;26.77;;
7231;SDS011;3657;49.630;11.018;2022-12-10T06:37:32;29.63;;;26.60;;
7231;SDS011;3657;49.630;11.018;2022-12-10T06:40:00;30.67;;;27.47;;
7231;SDS011;3657;49.630;11.018;2022-12-10T06:42:26;29.43;;;26.50;;
7231;SDS011;3657;49.630;11.018;2022-12-10T06:44:53;32.00;;;28.07;;
7231;SDS011;3657;49.630;11.018;2022-12-10T06:47:20;29.17;;;26.37;;
7231;SDS011;3657;49.630;11.018;2022-12-10T06:49:46;30.17;;;26.97;;
7231;SDS011;3657;49.630;11.018;2022-12-10T06:52:13;28.40;;;25.63;;
7231;SDS011;3657;49.630;11.018;2022-12-10T06:54:40;30.80;;;27.60;;
7231;SDS011;3657;49.630;11.018;2022-12-10T06:57:08;30.90;;;27.77;;
7231;SDS011;3657;49.630;11.018;2022-12-10T06:59:35;30.20;;;27.20;;
7231;SDS011;3657;49.630;11.018;2022-12-10T07:02:02;31.40;;;28.30;;
7231;SDS011;3657;49.630;11.018;2022-12-10T07:04:29;31.13;;;27.93;;
7231;SDS011;3657;49.630;11.018;2022-12-10T07:06:55;32.43;;;29.23;;
7231;SDS011;3657;49.630;11.018;2022-12-10T07:09:22;31.57;;;28.43;;
7231;SDS011;3657;49.630;11.018;2022-12-10T07:11:49;30.93;;;27.67;;
7231;SDS011;3657;49.630;11.018;2022-12-10T07:14:17;30.50;;;27.60;;
7231;SDS011;3657;49.630;11.018;2022-12-10T07:16:44;32.30;;;29.07;;
7231;SDS011;3657;49.630;11.018;2022-12-10T07:19:11;31.50;;;27.97;;
7231;SDS011;3657;49.630;11.018;2022-12-10T07:21:39;28.87;;;25.87;;
7231;SDS011;3657;49.630;11.018;2022-12-10T07:24:09;30.87;;;27.67;;
7231;SDS011;3657;49.630;11.018;2022-12-10T07:26:37;29.87;;;26.77;;
7231;SDS011;3657;49.630;11.018;2022-12-10T07:29:06;31.60;;;28.27;;
7231;SDS011;3657;49.630;11.018;2022-12-10T07:31:40;30.47;;;26.97;;
7231;SDS011;3657;49.630;11.018;2022-12-10T07:34:07;30.40;;;27.30;;
7231;SDS011;3657;49.630;11.018;2022-12-10T07:36:34;30.27;;;27.17;;
7231;SDS011;3657;49.630;11.018;2022-12-10T07:39:01;29.53;;;26.63;;
7231;SDS011;3657;49.630;11.018;2022-12-10T07:41:30;29.03;;;25.97;;
7231;SDS011;3657;49.630;11.018;2022-12-10T07:43:57;29.93;;;26.83;;
7231;SDS011;3657;49.630;11.018;2022-12-10T07:46:25;30.27;;;27.27;;
7231;SDS011;3657;49.630;11.018;2022-12-10T07:48:55;28.97;;;26.07;;
7231;SDS011;3657;49.630;11.018;2022-12-10T07:51:21;31.50;;;28.20;;
7231;SDS011;3657;49.630;11.018;2022-12-10T07:53:50;27.87;;;25.03;;
7231;SDS011;3657;49.630;11.018;2022-12-10T07:56:18;27.77;;;24.97;;
7231;SDS011;3657;49.630;11.018;2022-12-10T07:58:46;28.30;;;25.40;;
7231;SDS011;3657;49.630;11.018;2022-12-10T08:01:13;28.40;;;25.57;;
7231;SDS011;3657;49.630;11.018;2022-12-10T08:03:41;28.53;;;25.43;;
7231;SDS011;3657;49.630;11.018;2022-12-10T08:06:10;28.87;;;25.83;;
7231;SDS011;3657;49.630;11.018;2022-12-10T08:08:39;28.30;;;25.50;;
7231;SDS011;3657;49.630;11.018;2022-12-10T08:11:06;35.57;;;30.17;;
7231;SDS011;3657;49.630;11.018;2022-12-10T08:13:33;28.77;;;26.03;;
7231;SDS011;3657;49.630;11.018;2022-12-10T08:16:01;29.13;;;26.23;;
7231;SDS011;3657;49.630;11.018;2022-12-10T08:18:29;29.87;;;26.77;;
7231;SDS011;3657;49.630;11.018;2022-12-10T08:20:55;29.83;;;26.87;;
7231;SDS011;3657;49.630;11.018;2022-12-10T08:23:24;29.37;;;26.77;;
7231;SDS011;3657;49.630;11.018;2022-12-10T08:25:50;29.73;;;26.83;;
7231;SDS011;3657;49.630;11.018;2022-12-10T08:28:17;27.30;;;24.70;;
7231;SDS011;3657;49.630;11.018;2022-12-10T08:30:45;29.67;;;26.73;;
7231;SDS011;3657;49.630;11.018;2022-12-10T08:33:12;28.97;;;26.07;;
7231;SDS011;3657;49.630;11.018;2022-12-10T08:35:39;28.83;;;25.93;;
7231;SDS011;3657;49.630;11.018;2022-12-10T08:38:06;29.53;;;26.63;;
7231;SDS011;3657;49.630;11.018;2022-12-10T08:40:37;31.30;;;28.07;;
7231;SDS011;3657;49.630;11.018;2022-12-10T08:43:05;37.43;;;33.47;;
7231;SDS011;3657;49.630;11.018;2022-12-10T08:45:31;32.47;;;29.17;;
7231;SDS011;3657;49.630;11.018;2022-12-10T08:47:58;41.90;;;35.73;;
7231;SDS011;3657;49.630;11.018;2022-12-10T08:50:25;41.00;;;35.57;;
7231;SDS011;3657;49.630;11.018;2022-12-10T08:52:52;35.77;;;31.90;;
7231;SDS011;3657;49.630;11.018;2022-12-10T08:55:19;33.97;;;30.40;;
7231;SDS011;3657;49.630;11.018;2022-12-10T08:57:47;38.40;;;33.40;;
7231;SDS011;3657;49.630;11.018;2022-12-10T09:00:14;56.03;;;45.23;;
7231;SDS011;3657;49.630;11.018;2022-12-10T09:02:41;32.03;;;28.70;;
7231;SDS011;3657;49.630;11.018;2022-12-10T09:05:08;33.67;;;29.70;;
7231;SDS011;3657;49.630;11.018;2022-12-10T09:07:35;32.10;;;28.80;;
7231;SDS011;3657;49.630;11.018;2022-12-10T09:10:01;31.40;;;28.13;;
7231;SDS011;3657;49.630;11.018;2022-12-10T09:12:28;32.47;;;28.97;;
7231;SDS011;3657;49.630;11.018;2022-12-10T09:14:56;34.80;;;31.17;;
7231;SDS011;3657;49.630;11.018;2022-12-10T09:17:23;32.00;;;28.70;;
7231;SDS011;3657;49.630;11.018;2022-12-10T09:19:50;36.03;;;32.13;;
7231;SDS011;3657;49.630;11.018;2022-12-10T09:22:16;38.83;;;33.73;;
7231;SDS011;3657;49.630;11.018;2022-12-10T09:24:43;40.00;;;34.93;;
7231;SDS011;3657;49.630;11.018;2022-12-10T09:27:10;32.53;;;29.27;;
7231;SDS011;3657;49.630;11.018;2022-12-10T09:29:37;31.17;;;27.97;;
7231;SDS011;3657;49.630;11.018;2022-12-10T09:32:05;37.27;;;33.30;;
7231;SDS011;3657;49.630;11.018;2022-12-10T09:34:32;38.90;;;34.67;;
7231;SDS011;3657;49.630;11.018;2022-12-10T09:36:58;40.63;;;36.23;;
7231;SDS011;3657;49.630;11.018;2022-12-10T09:39:25;33.07;;;28.87;;
7231;SDS011;3657;49.630;11.018;2022-12-10T09:41:58;42.73;;;36.43;;
7231;SDS011;3657;49.630;11.018;2022-12-10T09:44:37;33.13;;;29.63;;
7231;SDS011;3657;49.630;11.018;2022-12-10T09:47:14;42.53;;;37.93;;
7231;SDS011;3657;49.630;11.018;2022-12-10T09:49:48;43.60;;;38.37;;
7231;SDS011;3657;49.630;11.018;2022-12-10T09:52:22;45.07;;;39.70;;
7231;SDS011;3657;49.630;11.018;2022-12-10T09:54:52;43.07;;;38.43;;
7231;SDS011;3657;49.630;11.018;2022-12-10T09:57:23;51.37;;;42.20;;
7231;SDS011;3657;49.630;11.018;2022-12-10T09:59:53;50.17;;;42.93;;
7231;SDS011;3657;49.630;11.018;2022-12-10T10:02:22;50.30;;;41.57;;
7231;SDS011;3657;49.630;11.018;2022-12-10T10:04:53;39.27;;;35.00;;
7231;SDS011;3657;49.630;11.018;2022-12-10T10:07:25;44.70;;;39.80;;
7231;SDS011;3657;49.630;11.018;2022-12-10T10:09:55;45.10;;;37.40;;
7231;SDS011;3657;49.630;11.018;2022-12-10T10:12:25;33.80;;;30.30;;
7231;SDS011;3657;49.630;11.018;2022-12-10T10:14:53;42.60;;;37.80;;
7231;SDS011;3657;49.630;11.018;2022-12-10T10:17:21;40.53;;;36.30;;
7231;SDS011;3657;49.630;11.018;2022-12-10T10:19:53;30.53;;;27.43;;
7231;SDS011;3657;49.630;11.018;2022-12-10T10:22:20;29.73;;;26.80;;
7231;SDS011;3657;49.630;11.018;2022-12-10T10:24:46;42.47;;;35.03;;
7231;SDS011;3657;49.630;11.018;2022-12-10T10:27:15;41.13;;;36.63;;
7231;SDS011;3657;49.630;11.018;2022-12-10T10:29:43;44.43;;;38.63;;
7231;SDS011;3657;49.630;11.018;2022-12-10T10:32:13;39.23;;;35.20;;
7231;SDS011;3657;49.630;11.018;2022-12-10T10:34:43;42.20;;;37.57;;
7231;SDS011;3657;49.630;11.018;2022-12-10T10:37:13;39.87;;;35.30;;
7231;SDS011;3657;49.630;11.018;2022-12-10T10:39:46;40.40;;;36.17;;
7231;SDS011;3657;49.630;11.018;2022-12-10T10:42:19;38.47;;;33.63;;
7231;SDS011;3657;49.630;11.018;2022-12-10T10:44:51;38.03;;;34.03;;
7231;SDS011;3657;49.630;11.018;2022-12-10T10:47:25;34.37;;;30.77;;
7231;SDS011;3657;49.630;11.018;2022-12-10T10:49:55;44.10;;;36.50;;
7231;SDS011;3657;49.630;11.018;2022-12-10T10:52:22;36.37;;;31.77;;
7231;SDS011;3657;49.630;11.018;2022-12-10T10:54:49;47.87;;;40.97;;
7231;SDS011;3657;49.630;11.018;2022-12-10T10:57:17;37.23;;;32.20;;
7231;SDS011;3657;49.630;11.018;2022-12-10T10:59:48;53.90;;;44.47;;
7231;SDS011;3657;49.630;11.018;2022-12-10T11:02:18;53.60;;;45.83;;
7231;SDS011;3657;49.630;11.018;2022-12-10T11:04:47;59.33;;;46.47;;
7231;SDS011;3657;49.630;11.018;2022-12-10T11:07:21;35.33;;;31.70;;
7231;SDS011;3657;49.630;11.018;2022-12-10T11:09:51;48.23;;;42.67;;
7231;SDS011;3657;49.630;11.018;2022-12-10T11:15:24;49.23;;;41.97;;
7231;SDS011;3657;49.630;11.018;2022-12-10T11:17:56;34.57;;;31.17;;
7231;SDS011;3657;49.630;11.018;2022-12-10T11:20:23;53.90;;;45.53;;
7231;SDS011;3657;49.630;11.018;2022-12-10T11:22:53;56.93;;;45.43;;
7231;SDS011;3657;49.630;11.018;2022-12-10T11:25:24;60.30;;;48.10;;
7231;SDS011;3657;49.630;11.018;2022-12-10T11:28:01;36.63;;;32.73;;
7231;SDS011;3657;49.630;11.018;2022-12-10T11:30:38;32.83;;;29.43;;
7231;SDS011;3657;49.630;11.018;2022-12-10T11:33:15;35.17;;;31.47;;
7231;SDS011;3657;49.630;11.018;2022-12-10T11:35:50;51.53;;;44.37;;
7231;SDS011;3657;49.630;11.018;2022-12-10T11:38:26;53.03;;;44.93;;
7231;SDS011;3657;49.630;11.018;2022-12-10T11:40:58;57.13;;;45.90;;
7231;SDS011;3657;49.630;11.018;2022-12-10T11:43:35;51.13;;;44.13;;
7231;SDS011;3657;49.630;11.018;2022-12-10T11:46:18;35.03;;;31.30;;
7231;SDS011;3657;49.630;11.018;2022-12-10T11:48:55;51.27;;;44.53;;
7231;SDS011;3657;49.630;11.018;2022-12-10T11:51:35;35.20;;;31.53;;
7231;SDS011;3657;49.630;11.018;2022-12-10T11:54:12;56.70;;;44.57;;
7231;SDS011;3657;49.630;11.018;2022-12-10T11:56:49;39.53;;;35.27;;
7231;SDS011;3657;49.630;11.018;2022-12-10T11:59:23;49.80;;;43.90;;
7231;SDS011;3657;49.630;11.018;2022-12-10T12:02:00;52.47;;;44.77;;
7231;SDS011;3657;49.630;11.018;2022-12-10T12:04:43;54.47;;;43.80;;
7231;SDS011;3657;49.630;11.018;2022-12-10T12:07:26;52.57;;;42.73;;
7231;SDS011;3657;49.630;11.018;2022-12-10T12:10:11;36.53;;;32.73;;
7231;SDS011;3657;49.630;11.018;2022-12-10T12:12:55;34.23;;;30.83;;
7231;SDS011;3657;49.630;11.018;2022-12-10T12:15:25;53.10;;;43.67;;
7231;SDS011;3657;49.630;11.018;2022-12-10T12:17:57;58.23;;;45.53;;
7231;SDS011;3657;49.630;11.018;2022-12-10T12:20:29;53.23;;;45.27;;
7231;SDS011;3657;49.630;11.018;2022-12-10T12:23:00;55.83;;;44.33;;
7231;SDS011;3657;49.630;11.018;2022-12-10T12:25:34;44.53;;;39.67;;
7231;SDS011;3657;49.630;11.018;2022-12-10T12:28:05;39.80;;;35.57;;
7231;SDS011;3657;49.630;11.018;2022-12-10T12:30:38;37.70;;;33.20;;
7231;SDS011;3657;49.630;11.018;2022-12-10T12:33:09;43.50;;;38.77;;
7231;SDS011;3657;49.630;11.018;2022-12-10T12:35:41;53.43;;;43.53;;
7231;SDS011;3657;49.630;11.018;2022-12-10T12:38:18;58.33;;;48.77;;
7231;SDS011;3657;49.630;11.018;2022-12-10T12:40:55;54.97;;;46.70;;
7231;SDS011;3657;49.630;11.018;2022-12-10T12:43:28;54.27;;;46.67;;
7231;SDS011;3657;49.630;11.018;2022-12-10T12:46:10;67.63;;;52.23;;
7231;SDS011;3657;49.630;11.018;2022-12-10T12:48:41;59.50;;;47.97;;
7231;SDS011;3657;49.630;11.018;2022-12-10T12:51:16;64.53;;;51.50;;
7231;SDS011;3657;49.630;11.018;2022-12-10T12:53:47;45.37;;;40.13;;
7231;SDS011;3657;49.630;11.018;2022-12-10T12:56:17;55.27;;;43.20;;
7231;SDS011;3657;49.630;11.018;2022-12-10T12:58:55;51.53;;;42.27;;
7231;SDS011;3657;49.630;11.018;2022-12-10T13:01:30;57.10;;;45.90;;
7231;SDS011;3657;49.630;11.018;2022-12-10T13:04:00;62.87;;;49.33;;
7231;SDS011;3657;49.630;11.018;2022-12-10T13:06:29;55.73;;;44.63;;
7231;SDS011;3657;49.630;11.018;2022-12-10T13:14:56;52.10;;;43.47;;
7231;SDS011;3657;49.630;11.018;2022-12-10T13:17:31;62.27;;;48.27;;
7231;SDS011;3657;49.630;11.018;2022-12-10T13:23:01;71.30;;;55.40;;
7231;SDS011;3657;49.630;11.018;2022-12-10T13:25:40;56.33;;;46.97;;
7231;SDS011;3657;49.630;11.018;2022-12-10T13:28:25;59.90;;;48.27;;
7231;SDS011;3657;49.630;11.018;2022-12-10T13:33:47;54.57;;;45.83;;
7231;SDS011;3657;49.630;11.018;2022-12-10T13:36:24;54.23;;;45.30;;
7231;SDS011;3657;49.630;11.018;2022-12-10T13:39:11;52.17;;;43.07;;
7231;SDS011;3657;49.630;11.018;2022-12-10T13:45:23;70.00;;;55.00;;
7231;SDS011;3657;49.630;11.018;2022-12-10T13:47:52;67.77;;;53.77;;
7231;SDS011;3657;49.630;11.018;2022-12-10T13:50:24;65.03;;;49.13;;
7231;SDS011;3657;49.630;11.018;2022-12-10T13:53:01;52.83;;;43.70;;
7231;SDS011;3657;49.630;11.018;2022-12-10T13:55:34;37.73;;;33.63;;
7231;SDS011;3657;49.630;11.018;2022-12-10T13:58:18;56.63;;;45.10;;
7231;SDS011;3657;49.630;11.018;2022-12-10T14:01:00;57.03;;;44.93;;
7231;SDS011;3657;49.630;11.018;2022-12-10T14:06:32;55.17;;;45.03;;
7231;SDS011;3657;49.630;11.018;2022-12-10T14:09:03;57.63;;;44.90;;
7231;SDS011;3657;49.630;11.018;2022-12-10T14:11:32;56.63;;;44.73;;
7231;SDS011;3657;49.630;11.018;2022-12-10T14:14:04;47.40;;;39.57;;
7231;SDS011;3657;49.630;11.018;2022-12-10T14:16:37;50.00;;;42.20;;
7231;SDS011;3657;49.630;11.018;2022-12-10T14:19:06;50.77;;;41.57;;
7231;SDS011;3657;49.630;11.018;2022-12-10T14:21:37;55.13;;;43.87;;
7231;SDS011;3657;49.630;11.018;2022-12-10T14:24:11;53.90;;;44.07;;
7231;SDS011;3657;49.630;11.018;2022-12-10T14:26:55;46.30;;;38.30;;
7231;SDS011;3657;49.630;11.018;2022-12-10T14:29:23;44.50;;;38.10;;
7231;SDS011;3657;49.630;11.018;2022-12-10T14:31:51;46.40;;;36.30;;
7231;SDS011;3657;49.630;11.018;2022-12-10T14:34:21;40.83;;;35.87;;
7231;SDS011;3657;49.630;11.018;2022-12-10T14:36:51;36.30;;;32.40;;
7231;SDS011;3657;49.630;11.018;2022-12-10T14:39:20;35.03;;;31.33;;
7231;SDS011;3657;49.630;11.018;2022-12-10T14:41:50;32.63;;;29.13;;
7231;SDS011;3657;49.630;11.018;2022-12-10T14:44:21;31.90;;;28.70;;
7231;SDS011;3657;49.630;11.018;2022-12-10T14:46:48;32.77;;;29.40;;
7231;SDS011;3657;49.630;11.018;2022-12-10T14:49:19;36.17;;;31.77;;
7231;SDS011;3657;49.630;11.018;2022-12-10T14:51:46;32.30;;;28.93;;
7231;SDS011;3657;49.630;11.018;2022-12-10T14:54:23;33.20;;;29.70;;
7231;SDS011;3657;49.630;11.018;2022-12-10T14:56:52;38.37;;;33.63;;
7231;SDS011;3657;49.630;11.018;2022-12-10T14:59:20;36.27;;;31.93;;
7231;SDS011;3657;49.630;11.018;2022-12-10T15:01:51;33.87;;;30.27;;
7231;SDS011;3657;49.630;11.018;2022-12-10T15:04:25;34.63;;;29.70;;
7231;SDS011;3657;49.630;11.018;2022-12-10T15:07:05;31.00;;;27.70;;
7231;SDS011;3657;49.630;11.018;2022-12-10T15:09:34;29.57;;;26.60;;
7231;SDS011;3657;49.630;11.018;2022-12-10T15:12:00;31.63;;;28.23;;
7231;SDS011;3657;49.630;11.018;2022-12-10T15:14:28;33.30;;;29.77;;